sensor_id;sensor_type;location;lat;lon;timestamp;temperature;humidity
13561;DHT22;6852;51.686;5.314;2022-08-03T00:02:14;21.40;99.90
13561;DHT22;6852;51.686;5.314;2022-08-03T00:04:42;21.30;99.90
13561;DHT22;6852;51.686;5.314;2022-08-03T00:07:09;21.30;99.90
13561;DHT22;6852;51.686;5.314;2022-08-03T00:09:36;21.20;99.90
13561;DHT22;6852;51.686;5.314;2022-08-03T00:12:03;21.20;99.90
13561;DHT22;6852;51.686;5.314;2022-08-03T00:14:31;21.20;99.90
13561;DHT22;6852;51.686;5.314;2022-08-03T00:16:58;21.20;99.90
13561;DHT22;6852;51.686;5.314;2022-08-03T00:19:25;21.20;99.90
13561;DHT22;6852;51.686;5.314;2022-08-03T00:21:52;21.20;99.90
13561;DHT22;6852;51.686;5.314;2022-08-03T00:24:19;21.30;99.90
13561;DHT22;6852;51.686;5.314;2022-08-03T00:26:46;21.30;99.90
13561;DHT22;6852;51.686;5.314;2022-08-03T00:29:13;21.30;99.90
13561;DHT22;6852;51.686;5.314;2022-08-03T00:31:39;21.30;99.90
13561;DHT22;6852;51.686;5.314;2022-08-03T00:34:18;21.30;99.90
13561;DHT22;6852;51.686;5.314;2022-08-03T00:37:02;21.20;99.90
13561;DHT22;6852;51.686;5.314;2022-08-03T00:39:29;21.00;99.90
13561;DHT22;6852;51.686;5.314;2022-08-03T00:41:56;21.00;99.90
13561;DHT22;6852;51.686;5.314;2022-08-03T00:44:23;21.10;99.90
13561;DHT22;6852;51.686;5.314;2022-08-03T00:46:50;21.00;99.90
13561;DHT22;6852;51.686;5.314;2022-08-03T00:49:17;21.10;99.90
13561;DHT22;6852;51.686;5.314;2022-08-03T00:51:44;21.00;99.90
13561;DHT22;6852;51.686;5.314;2022-08-03T00:54:11;20.90;99.90
13561;DHT22;6852;51.686;5.314;2022-08-03T00:56:37;21.00;99.90
13561;DHT22;6852;51.686;5.314;2022-08-03T00:59:28;21.10;99.90
13561;DHT22;6852;51.686;5.314;2022-08-03T01:01:55;20.90;99.90
13561;DHT22;6852;51.686;5.314;2022-08-03T01:04:23;20.90;99.90
13561;DHT22;6852;51.686;5.314;2022-08-03T01:07:12;20.90;99.90
13561;DHT22;6852;51.686;5.314;2022-08-03T01:10:01;20.90;99.90
13561;DHT22;6852;51.686;5.314;2022-08-03T01:13:02;20.90;99.90
13561;DHT22;6852;51.686;5.314;2022-08-03T01:15:42;20.80;99.90
13561;DHT22;6852;51.686;5.314;2022-08-03T01:18:17;20.80;99.90
13561;DHT22;6852;51.686;5.314;2022-08-03T01:20:48;20.90;99.90
13561;DHT22;6852;51.686;5.314;2022-08-03T01:26:58;20.80;99.90
13561;DHT22;6852;51.686;5.314;2022-08-03T01:33:33;20.80;99.90
13561;DHT22;6852;51.686;5.314;2022-08-03T01:38:10;20.70;99.90
13561;DHT22;6852;51.686;5.314;2022-08-03T01:40:39;20.80;99.90
13561;DHT22;6852;51.686;5.314;2022-08-03T01:43:09;20.70;99.90
13561;DHT22;6852;51.686;5.314;2022-08-03T01:45:40;20.70;99.90
13561;DHT22;6852;51.686;5.314;2022-08-03T01:48:11;20.70;99.90
13561;DHT22;6852;51.686;5.314;2022-08-03T01:50:39;20.70;99.90
13561;DHT22;6852;51.686;5.314;2022-08-03T01:53:08;20.70;99.90
13561;DHT22;6852;51.686;5.314;2022-08-03T01:55:36;20.70;99.90
13561;DHT22;6852;51.686;5.314;2022-08-03T01:58:04;20.80;99.90
13561;DHT22;6852;51.686;5.314;2022-08-03T02:00:37;20.70;99.90
13561;DHT22;6852;51.686;5.314;2022-08-03T02:03:11;20.60;99.90
13561;DHT22;6852;51.686;5.314;2022-08-03T02:05:39;20.60;99.90
13561;DHT22;6852;51.686;5.314;2022-08-03T02:08:08;20.60;99.90
13561;DHT22;6852;51.686;5.314;2022-08-03T02:10:36;20.40;99.90
13561;DHT22;6852;51.686;5.314;2022-08-03T02:13:07;20.40;99.90
13561;DHT22;6852;51.686;5.314;2022-08-03T02:15:38;20.40;99.90
13561;DHT22;6852;51.686;5.314;2022-08-03T02:18:07;20.40;99.90
13561;DHT22;6852;51.686;5.314;2022-08-03T02:20:39;20.40;99.90
13561;DHT22;6852;51.686;5.314;2022-08-03T02:23:07;20.40;99.90
13561;DHT22;6852;51.686;5.314;2022-08-03T02:25:42;20.50;99.90
13561;DHT22;6852;51.686;5.314;2022-08-03T02:28:13;20.50;99.90
13561;DHT22;6852;51.686;5.314;2022-08-03T02:30:45;20.40;99.90
13561;DHT22;6852;51.686;5.314;2022-08-03T02:33:26;20.40;99.90
13561;DHT22;6852;51.686;5.314;2022-08-03T02:35:56;20.20;99.90
13561;DHT22;6852;51.686;5.314;2022-08-03T02:38:32;20.30;99.90
13561;DHT22;6852;51.686;5.314;2022-08-03T02:41:06;20.30;99.90
13561;DHT22;6852;51.686;5.314;2022-08-03T02:43:34;20.20;99.90
13561;DHT22;6852;51.686;5.314;2022-08-03T02:46:27;20.30;99.90
13561;DHT22;6852;51.686;5.314;2022-08-03T02:48:56;20.40;99.90
13561;DHT22;6852;51.686;5.314;2022-08-03T02:51:46;20.40;99.90
13561;DHT22;6852;51.686;5.314;2022-08-03T02:54:17;20.30;99.90
13561;DHT22;6852;51.686;5.314;2022-08-03T02:56:45;20.40;99.90
13561;DHT22;6852;51.686;5.314;2022-08-03T02:59:13;20.40;99.90
13561;DHT22;6852;51.686;5.314;2022-08-03T03:01:43;20.30;99.90
13561;DHT22;6852;51.686;5.314;2022-08-03T03:04:12;20.30;99.90
13561;DHT22;6852;51.686;5.314;2022-08-03T03:06:40;20.30;99.90
13561;DHT22;6852;51.686;5.314;2022-08-03T03:09:10;20.30;99.90
13561;DHT22;6852;51.686;5.314;2022-08-03T03:11:38;20.30;99.90
13561;DHT22;6852;51.686;5.314;2022-08-03T03:14:08;20.30;99.90
13561;DHT22;6852;51.686;5.314;2022-08-03T03:16:36;20.30;99.90
13561;DHT22;6852;51.686;5.314;2022-08-03T03:19:04;20.20;99.90
13561;DHT22;6852;51.686;5.314;2022-08-03T03:21:34;20.10;99.90
13561;DHT22;6852;51.686;5.314;2022-08-03T03:24:08;20.10;99.90
13561;DHT22;6852;51.686;5.314;2022-08-03T03:26:36;20.00;99.90
13561;DHT22;6852;51.686;5.314;2022-08-03T03:29:08;20.00;99.90
13561;DHT22;6852;51.686;5.314;2022-08-03T03:31:35;20.10;99.90
13561;DHT22;6852;51.686;5.314;2022-08-03T03:34:03;20.10;99.90
13561;DHT22;6852;51.686;5.314;2022-08-03T03:36:32;20.10;99.90
13561;DHT22;6852;51.686;5.314;2022-08-03T03:38:59;20.00;99.90
13561;DHT22;6852;51.686;5.314;2022-08-03T03:41:42;19.90;99.90
13561;DHT22;6852;51.686;5.314;2022-08-03T03:44:09;19.80;99.90
13561;DHT22;6852;51.686;5.314;2022-08-03T03:46:37;19.90;99.90
13561;DHT22;6852;51.686;5.314;2022-08-03T03:49:05;19.90;99.90
13561;DHT22;6852;51.686;5.314;2022-08-03T03:51:34;20.00;99.90
13561;DHT22;6852;51.686;5.314;2022-08-03T03:54:02;20.00;99.90
13561;DHT22;6852;51.686;5.314;2022-08-03T03:56:31;19.80;99.90
13561;DHT22;6852;51.686;5.314;2022-08-03T03:58:59;19.80;99.90
13561;DHT22;6852;51.686;5.314;2022-08-03T04:01:26;19.80;99.90
13561;DHT22;6852;51.686;5.314;2022-08-03T04:03:53;19.90;99.90
13561;DHT22;6852;51.686;5.314;2022-08-03T04:06:20;20.00;99.90
13561;DHT22;6852;51.686;5.314;2022-08-03T04:09:07;20.00;99.90
13561;DHT22;6852;51.686;5.314;2022-08-03T04:11:57;20.00;99.90
13561;DHT22;6852;51.686;5.314;2022-08-03T04:14:32;19.90;99.90
13561;DHT22;6852;51.686;5.314;2022-08-03T04:17:03;19.80;99.90
13561;DHT22;6852;51.686;5.314;2022-08-03T04:19:35;19.70;99.90
13561;DHT22;6852;51.686;5.314;2022-08-03T04:22:06;19.70;99.90
13561;DHT22;6852;51.686;5.314;2022-08-03T04:24:45;19.80;99.90
13561;DHT22;6852;51.686;5.314;2022-08-03T04:27:15;19.80;99.90
13561;DHT22;6852;51.686;5.314;2022-08-03T04:29:46;19.80;99.90
13561;DHT22;6852;51.686;5.314;2022-08-03T04:32:15;19.80;99.90
13561;DHT22;6852;51.686;5.314;2022-08-03T04:34:43;19.60;99.90
13561;DHT22;6852;51.686;5.314;2022-08-03T04:37:21;19.70;99.90
13561;DHT22;6852;51.686;5.314;2022-08-03T04:39:52;19.70;99.90
13561;DHT22;6852;51.686;5.314;2022-08-03T04:42:23;19.70;99.90
13561;DHT22;6852;51.686;5.314;2022-08-03T04:44:51;19.60;99.90
13561;DHT22;6852;51.686;5.314;2022-08-03T04:47:26;19.50;99.90
13561;DHT22;6852;51.686;5.314;2022-08-03T04:49:53;19.40;99.90
13561;DHT22;6852;51.686;5.314;2022-08-03T04:52:20;19.40;99.90
13561;DHT22;6852;51.686;5.314;2022-08-03T04:54:47;19.30;99.90
13561;DHT22;6852;51.686;5.314;2022-08-03T04:57:17;19.40;99.90
13561;DHT22;6852;51.686;5.314;2022-08-03T04:59:53;19.40;99.90
13561;DHT22;6852;51.686;5.314;2022-08-03T05:02:28;19.60;99.90
13561;DHT22;6852;51.686;5.314;2022-08-03T05:04:59;19.50;99.90
13561;DHT22;6852;51.686;5.314;2022-08-03T05:07:26;19.40;99.90
13561;DHT22;6852;51.686;5.314;2022-08-03T05:10:03;19.50;99.90
13561;DHT22;6852;51.686;5.314;2022-08-03T05:12:40;19.40;99.90
13561;DHT22;6852;51.686;5.314;2022-08-03T05:15:07;19.50;99.90
13561;DHT22;6852;51.686;5.314;2022-08-03T05:17:34;19.60;99.90
13561;DHT22;6852;51.686;5.314;2022-08-03T05:20:02;19.80;99.90
13561;DHT22;6852;51.686;5.314;2022-08-03T05:22:30;19.80;99.90
13561;DHT22;6852;51.686;5.314;2022-08-03T05:24:57;19.80;99.90
13561;DHT22;6852;51.686;5.314;2022-08-03T05:27:24;19.80;99.90
13561;DHT22;6852;51.686;5.314;2022-08-03T05:29:51;19.80;99.90
13561;DHT22;6852;51.686;5.314;2022-08-03T05:32:18;20.00;99.90
13561;DHT22;6852;51.686;5.314;2022-08-03T05:34:46;19.90;99.90
13561;DHT22;6852;51.686;5.314;2022-08-03T05:37:12;20.00;99.90
13561;DHT22;6852;51.686;5.314;2022-08-03T05:39:39;20.10;99.90
13561;DHT22;6852;51.686;5.314;2022-08-03T05:42:06;20.10;99.90
13561;DHT22;6852;51.686;5.314;2022-08-03T05:44:33;20.10;99.90
13561;DHT22;6852;51.686;5.314;2022-08-03T05:47:04;20.10;99.90
13561;DHT22;6852;51.686;5.314;2022-08-03T05:49:32;20.10;99.90
13561;DHT22;6852;51.686;5.314;2022-08-03T05:51:59;20.20;99.90
13561;DHT22;6852;51.686;5.314;2022-08-03T05:54:42;20.10;99.90
13561;DHT22;6852;51.686;5.314;2022-08-03T05:57:23;20.20;99.90
13561;DHT22;6852;51.686;5.314;2022-08-03T05:59:50;20.30;99.90
13561;DHT22;6852;51.686;5.314;2022-08-03T06:02:27;20.30;99.90
13561;DHT22;6852;51.686;5.314;2022-08-03T06:04:55;20.30;99.90
13561;DHT22;6852;51.686;5.314;2022-08-03T06:07:22;20.40;99.90
13561;DHT22;6852;51.686;5.314;2022-08-03T06:09:51;20.50;99.90
13561;DHT22;6852;51.686;5.314;2022-08-03T06:12:38;20.40;99.90
13561;DHT22;6852;51.686;5.314;2022-08-03T06:15:07;20.50;99.90
13561;DHT22;6852;51.686;5.314;2022-08-03T06:17:49;20.70;99.90
13561;DHT22;6852;51.686;5.314;2022-08-03T06:20:18;20.80;99.90
13561;DHT22;6852;51.686;5.314;2022-08-03T06:22:47;20.80;99.90
13561;DHT22;6852;51.686;5.314;2022-08-03T06:25:26;20.90;99.90
13561;DHT22;6852;51.686;5.314;2022-08-03T06:27:53;20.90;99.90
13561;DHT22;6852;51.686;5.314;2022-08-03T06:30:19;21.00;99.90
13561;DHT22;6852;51.686;5.314;2022-08-03T06:32:47;21.00;99.90
13561;DHT22;6852;51.686;5.314;2022-08-03T06:35:18;21.00;99.90
13561;DHT22;6852;51.686;5.314;2022-08-03T06:37:47;21.10;99.90
13561;DHT22;6852;51.686;5.314;2022-08-03T06:40:17;21.10;99.90
13561;DHT22;6852;51.686;5.314;2022-08-03T06:42:49;21.20;99.90
13561;DHT22;6852;51.686;5.314;2022-08-03T06:45:17;21.30;99.90
13561;DHT22;6852;51.686;5.314;2022-08-03T06:47:44;21.50;99.90
13561;DHT22;6852;51.686;5.314;2022-08-03T06:50:11;21.40;99.90
13561;DHT22;6852;51.686;5.314;2022-08-03T06:52:42;21.70;99.90
13561;DHT22;6852;51.686;5.314;2022-08-03T06:55:10;22.00;99.90
13561;DHT22;6852;51.686;5.314;2022-08-03T06:57:38;22.20;99.90
13561;DHT22;6852;51.686;5.314;2022-08-03T07:00:05;22.30;99.90
13561;DHT22;6852;51.686;5.314;2022-08-03T07:02:38;22.30;99.90
13561;DHT22;6852;51.686;5.314;2022-08-03T07:05:06;22.40;99.90
13561;DHT22;6852;51.686;5.314;2022-08-03T07:07:34;22.60;99.90
13561;DHT22;6852;51.686;5.314;2022-08-03T07:10:02;22.70;99.90
13561;DHT22;6852;51.686;5.314;2022-08-03T07:12:30;22.60;99.90
13561;DHT22;6852;51.686;5.314;2022-08-03T07:14:58;22.80;99.90
13561;DHT22;6852;51.686;5.314;2022-08-03T07:17:29;22.90;99.90
13561;DHT22;6852;51.686;5.314;2022-08-03T07:19:57;22.90;99.90
13561;DHT22;6852;51.686;5.314;2022-08-03T07:22:24;23.10;99.90
13561;DHT22;6852;51.686;5.314;2022-08-03T07:24:51;23.30;99.90
13561;DHT22;6852;51.686;5.314;2022-08-03T07:27:18;23.60;99.90
13561;DHT22;6852;51.686;5.314;2022-08-03T07:29:45;23.50;99.90
13561;DHT22;6852;51.686;5.314;2022-08-03T07:32:12;23.40;99.90
13561;DHT22;6852;51.686;5.314;2022-08-03T07:34:39;23.60;99.90
13561;DHT22;6852;51.686;5.314;2022-08-03T07:37:06;23.50;99.90
13561;DHT22;6852;51.686;5.314;2022-08-03T07:39:35;23.60;99.90
13561;DHT22;6852;51.686;5.314;2022-08-03T07:42:02;23.70;99.90
13561;DHT22;6852;51.686;5.314;2022-08-03T07:44:29;23.80;99.90
13561;DHT22;6852;51.686;5.314;2022-08-03T07:46:56;23.70;99.90
13561;DHT22;6852;51.686;5.314;2022-08-03T07:49:23;23.80;99.90
13561;DHT22;6852;51.686;5.314;2022-08-03T07:51:50;24.10;99.90
13561;DHT22;6852;51.686;5.314;2022-08-03T07:54:37;24.10;99.90
13561;DHT22;6852;51.686;5.314;2022-08-03T07:57:04;24.30;99.90
13561;DHT22;6852;51.686;5.314;2022-08-03T07:59:31;24.50;99.90
13561;DHT22;6852;51.686;5.314;2022-08-03T08:02:18;24.50;99.90
13561;DHT22;6852;51.686;5.314;2022-08-03T08:04:45;24.50;99.90
13561;DHT22;6852;51.686;5.314;2022-08-03T08:07:12;24.50;99.90
13561;DHT22;6852;51.686;5.314;2022-08-03T08:09:41;24.50;99.90
13561;DHT22;6852;51.686;5.314;2022-08-03T08:12:08;24.50;99.90
13561;DHT22;6852;51.686;5.314;2022-08-03T08:14:41;24.80;99.90
13561;DHT22;6852;51.686;5.314;2022-08-03T08:17:12;25.20;99.90
13561;DHT22;6852;51.686;5.314;2022-08-03T08:19:39;25.10;99.90
13561;DHT22;6852;51.686;5.314;2022-08-03T08:22:17;25.30;99.90
13561;DHT22;6852;51.686;5.314;2022-08-03T08:24:55;25.30;99.90
13561;DHT22;6852;51.686;5.314;2022-08-03T08:27:22;25.60;99.90
13561;DHT22;6852;51.686;5.314;2022-08-03T08:29:49;25.70;99.90
13561;DHT22;6852;51.686;5.314;2022-08-03T08:32:23;25.70;99.90
13561;DHT22;6852;51.686;5.314;2022-08-03T08:34:49;25.90;99.90
13561;DHT22;6852;51.686;5.314;2022-08-03T08:37:16;26.20;99.90
13561;DHT22;6852;51.686;5.314;2022-08-03T08:39:43;26.10;99.90
13561;DHT22;6852;51.686;5.314;2022-08-03T08:42:10;26.30;99.90
13561;DHT22;6852;51.686;5.314;2022-08-03T08:44:37;26.20;99.90
13561;DHT22;6852;51.686;5.314;2022-08-03T08:47:05;26.40;99.90
13561;DHT22;6852;51.686;5.314;2022-08-03T08:49:35;26.30;99.90
13561;DHT22;6852;51.686;5.314;2022-08-03T08:52:04;26.50;99.90
13561;DHT22;6852;51.686;5.314;2022-08-03T08:55:03;26.70;99.90
13561;DHT22;6852;51.686;5.314;2022-08-03T08:57:34;27.70;99.90
13561;DHT22;6852;51.686;5.314;2022-08-03T09:00:11;28.30;99.90
13561;DHT22;6852;51.686;5.314;2022-08-03T09:02:41;28.20;99.90
13561;DHT22;6852;51.686;5.314;2022-08-03T09:05:14;28.60;99.90
13561;DHT22;6852;51.686;5.314;2022-08-03T09:07:42;29.10;99.90
13561;DHT22;6852;51.686;5.314;2022-08-03T09:10:11;29.30;99.90
13561;DHT22;6852;51.686;5.314;2022-08-03T09:12:45;28.40;99.90
13561;DHT22;6852;51.686;5.314;2022-08-03T09:15:26;29.10;99.90
13561;DHT22;6852;51.686;5.314;2022-08-03T09:17:55;29.80;99.90
13561;DHT22;6852;51.686;5.314;2022-08-03T09:20:24;29.30;99.90
13561;DHT22;6852;51.686;5.314;2022-08-03T09:28:09;28.50;99.90
13561;DHT22;6852;51.686;5.314;2022-08-03T09:30:38;29.50;99.90
13561;DHT22;6852;51.686;5.314;2022-08-03T09:33:08;29.50;99.90
13561;DHT22;6852;51.686;5.314;2022-08-03T09:35:40;29.90;99.90
13561;DHT22;6852;51.686;5.314;2022-08-03T09:38:24;29.30;99.90
13561;DHT22;6852;51.686;5.314;2022-08-03T09:40:55;29.50;99.90
13561;DHT22;6852;51.686;5.314;2022-08-03T09:43:26;29.60;99.90
13561;DHT22;6852;51.686;5.314;2022-08-03T09:46:03;29.10;99.90
13561;DHT22;6852;51.686;5.314;2022-08-03T09:48:30;29.30;99.90
13561;DHT22;6852;51.686;5.314;2022-08-03T09:51:04;29.50;99.90
13561;DHT22;6852;51.686;5.314;2022-08-03T09:53:51;29.40;99.90
13561;DHT22;6852;51.686;5.314;2022-08-03T09:59:10;29.30;99.90
13561;DHT22;6852;51.686;5.314;2022-08-03T10:01:38;29.70;99.90
13561;DHT22;6852;51.686;5.314;2022-08-03T10:04:14;29.50;99.90
13561;DHT22;6852;51.686;5.314;2022-08-03T10:06:44;29.50;99.90
13561;DHT22;6852;51.686;5.314;2022-08-03T10:09:15;29.10;99.90
13561;DHT22;6852;51.686;5.314;2022-08-03T10:11:43;29.10;99.90
13561;DHT22;6852;51.686;5.314;2022-08-03T10:14:11;29.40;99.90
13561;DHT22;6852;51.686;5.314;2022-08-03T10:16:49;29.40;99.90
13561;DHT22;6852;51.686;5.314;2022-08-03T10:19:15;29.10;99.90
13561;DHT22;6852;51.686;5.314;2022-08-03T10:21:49;28.90;99.90
13561;DHT22;6852;51.686;5.314;2022-08-03T10:24:23;28.80;99.90
13561;DHT22;6852;51.686;5.314;2022-08-03T10:26:52;28.60;99.90
13561;DHT22;6852;51.686;5.314;2022-08-03T10:29:23;28.80;99.90
13561;DHT22;6852;51.686;5.314;2022-08-03T10:31:57;28.80;99.90
13561;DHT22;6852;51.686;5.314;2022-08-03T10:34:26;28.70;99.90
13561;DHT22;6852;51.686;5.314;2022-08-03T10:36:57;28.70;99.90
13561;DHT22;6852;51.686;5.314;2022-08-03T10:39:28;28.70;99.90
13561;DHT22;6852;51.686;5.314;2022-08-03T10:41:56;28.40;99.90
13561;DHT22;6852;51.686;5.314;2022-08-03T10:44:32;28.50;99.90
13561;DHT22;6852;51.686;5.314;2022-08-03T10:46:59;28.60;99.90
13561;DHT22;6852;51.686;5.314;2022-08-03T10:49:27;28.90;99.90
13561;DHT22;6852;51.686;5.314;2022-08-03T10:52:02;28.90;99.90
13561;DHT22;6852;51.686;5.314;2022-08-03T10:54:49;29.10;99.90
13561;DHT22;6852;51.686;5.314;2022-08-03T11:00:13;29.30;99.90
13561;DHT22;6852;51.686;5.314;2022-08-03T11:03:03;29.50;99.90
13561;DHT22;6852;51.686;5.314;2022-08-03T11:05:36;29.30;99.90
13561;DHT22;6852;51.686;5.314;2022-08-03T11:11:01;29.70;99.90
13561;DHT22;6852;51.686;5.314;2022-08-03T11:13:29;29.80;80.30
13561;DHT22;6852;51.686;5.314;2022-08-03T11:16:01;30.00;99.90
13561;DHT22;6852;51.686;5.314;2022-08-03T11:18:33;30.90;99.90
13561;DHT22;6852;51.686;5.314;2022-08-03T11:21:01;31.30;99.90
13561;DHT22;6852;51.686;5.314;2022-08-03T11:23:45;31.80;99.90
13561;DHT22;6852;51.686;5.314;2022-08-03T11:26:32;31.50;99.90
13561;DHT22;6852;51.686;5.314;2022-08-03T11:29:28;31.60;99.90
13561;DHT22;6852;51.686;5.314;2022-08-03T11:31:56;31.60;99.90
13561;DHT22;6852;51.686;5.314;2022-08-03T11:34:23;31.40;99.90
13561;DHT22;6852;51.686;5.314;2022-08-03T11:37:16;31.70;99.90
13561;DHT22;6852;51.686;5.314;2022-08-03T11:39:46;31.70;99.90
13561;DHT22;6852;51.686;5.314;2022-08-03T11:44:50;32.70;99.90
13561;DHT22;6852;51.686;5.314;2022-08-03T11:47:19;32.20;99.90
13561;DHT22;6852;51.686;5.314;2022-08-03T11:49:47;32.20;99.90
13561;DHT22;6852;51.686;5.314;2022-08-03T11:52:15;32.70;99.90
13561;DHT22;6852;51.686;5.314;2022-08-03T11:54:43;32.30;99.90
13561;DHT22;6852;51.686;5.314;2022-08-03T11:57:10;32.60;99.90
13561;DHT22;6852;51.686;5.314;2022-08-03T11:59:37;32.50;99.90
13561;DHT22;6852;51.686;5.314;2022-08-03T12:04:50;32.50;99.90
13561;DHT22;6852;51.686;5.314;2022-08-03T12:07:18;32.80;99.90
13561;DHT22;6852;51.686;5.314;2022-08-03T12:12:32;33.00;99.90
13561;DHT22;6852;51.686;5.314;2022-08-03T12:14:59;32.70;99.90
13561;DHT22;6852;51.686;5.314;2022-08-03T12:17:33;33.10;99.90
13561;DHT22;6852;51.686;5.314;2022-08-03T12:20:00;33.90;99.90
13561;DHT22;6852;51.686;5.314;2022-08-03T12:22:38;34.90;99.90
13561;DHT22;6852;51.686;5.314;2022-08-03T12:25:09;34.70;99.90
13561;DHT22;6852;51.686;5.314;2022-08-03T12:28:16;34.40;99.90
13561;DHT22;6852;51.686;5.314;2022-08-03T12:31:07;34.50;99.90
13561;DHT22;6852;51.686;5.314;2022-08-03T12:33:58;33.60;99.90
13561;DHT22;6852;51.686;5.314;2022-08-03T12:36:26;34.40;99.90
13561;DHT22;6852;51.686;5.314;2022-08-03T12:38:59;34.30;99.90
13561;DHT22;6852;51.686;5.314;2022-08-03T12:41:33;34.00;99.90
13561;DHT22;6852;51.686;5.314;2022-08-03T12:44:05;34.20;99.90
13561;DHT22;6852;51.686;5.314;2022-08-03T12:46:37;33.50;99.90
13561;DHT22;6852;51.686;5.314;2022-08-03T12:49:13;33.40;99.90
13561;DHT22;6852;51.686;5.314;2022-08-03T12:54:14;34.30;99.90
13561;DHT22;6852;51.686;5.314;2022-08-03T13:02:02;34.10;99.90
13561;DHT22;6852;51.686;5.314;2022-08-03T13:04:35;33.50;99.90
13561;DHT22;6852;51.686;5.314;2022-08-03T13:07:06;33.40;99.90
13561;DHT22;6852;51.686;5.314;2022-08-03T13:10:06;33.20;99.90
13561;DHT22;6852;51.686;5.314;2022-08-03T13:12:48;32.50;99.90
13561;DHT22;6852;51.686;5.314;2022-08-03T13:15:15;32.90;99.90
13561;DHT22;6852;51.686;5.314;2022-08-03T13:17:42;33.40;99.90
13561;DHT22;6852;51.686;5.314;2022-08-03T13:20:10;32.70;99.90
13561;DHT22;6852;51.686;5.314;2022-08-03T13:22:37;32.70;99.90
13561;DHT22;6852;51.686;5.314;2022-08-03T13:25:04;33.10;99.90
13561;DHT22;6852;51.686;5.314;2022-08-03T13:27:31;33.20;99.90
13561;DHT22;6852;51.686;5.314;2022-08-03T13:30:18;32.80;99.90
13561;DHT22;6852;51.686;5.314;2022-08-03T13:32:56;33.20;99.90
13561;DHT22;6852;51.686;5.314;2022-08-03T13:35:24;34.00;99.90
13561;DHT22;6852;51.686;5.314;2022-08-03T13:37:51;32.40;99.90
13561;DHT22;6852;51.686;5.314;2022-08-03T13:40:18;33.30;99.90
13561;DHT22;6852;51.686;5.314;2022-08-03T13:42:49;32.90;99.90
13561;DHT22;6852;51.686;5.314;2022-08-03T13:45:16;32.90;99.90
13561;DHT22;6852;51.686;5.314;2022-08-03T13:47:43;33.30;99.90
13561;DHT22;6852;51.686;5.314;2022-08-03T13:50:10;33.20;99.90
13561;DHT22;6852;51.686;5.314;2022-08-03T13:52:37;32.70;99.90
13561;DHT22;6852;51.686;5.314;2022-08-03T13:55:05;33.30;99.90
13561;DHT22;6852;51.686;5.314;2022-08-03T13:57:33;33.70;99.90
13561;DHT22;6852;51.686;5.314;2022-08-03T14:00:21;33.80;99.90
13561;DHT22;6852;51.686;5.314;2022-08-03T14:02:56;33.50;99.90
13561;DHT22;6852;51.686;5.314;2022-08-03T14:05:31;33.70;99.90
13561;DHT22;6852;51.686;5.314;2022-08-03T14:07:59;33.30;99.90
13561;DHT22;6852;51.686;5.314;2022-08-03T14:10:36;33.60;99.90
13561;DHT22;6852;51.686;5.314;2022-08-03T14:13:04;33.30;99.90
13561;DHT22;6852;51.686;5.314;2022-08-03T14:15:31;32.90;99.90
13561;DHT22;6852;51.686;5.314;2022-08-03T14:18:07;32.90;99.90
13561;DHT22;6852;51.686;5.314;2022-08-03T14:20:42;32.00;99.90
13561;DHT22;6852;51.686;5.314;2022-08-03T14:23:17;32.10;99.90
13561;DHT22;6852;51.686;5.314;2022-08-03T14:25:44;31.80;99.90
13561;DHT22;6852;51.686;5.314;2022-08-03T14:28:20;32.10;99.90
13561;DHT22;6852;51.686;5.314;2022-08-03T14:30:50;32.50;99.90
13561;DHT22;6852;51.686;5.314;2022-08-03T14:33:17;33.10;99.90
13561;DHT22;6852;51.686;5.314;2022-08-03T14:35:44;33.10;99.90
13561;DHT22;6852;51.686;5.314;2022-08-03T14:38:11;32.50;99.90
13561;DHT22;6852;51.686;5.314;2022-08-03T14:40:39;31.90;99.90
13561;DHT22;6852;51.686;5.314;2022-08-03T14:43:06;31.30;99.90
13561;DHT22;6852;51.686;5.314;2022-08-03T14:45:33;31.60;99.90
13561;DHT22;6852;51.686;5.314;2022-08-03T14:48:01;31.80;99.90
13561;DHT22;6852;51.686;5.314;2022-08-03T14:50:48;31.80;99.90
13561;DHT22;6852;51.686;5.314;2022-08-03T14:53:17;31.70;99.90
13561;DHT22;6852;51.686;5.314;2022-08-03T14:55:45;32.30;99.90
13561;DHT22;6852;51.686;5.314;2022-08-03T14:58:22;32.50;99.90
13561;DHT22;6852;51.686;5.314;2022-08-03T15:00:50;32.10;99.90
13561;DHT22;6852;51.686;5.314;2022-08-03T15:03:18;32.10;99.90
13561;DHT22;6852;51.686;5.314;2022-08-03T15:05:50;32.10;99.90
13561;DHT22;6852;51.686;5.314;2022-08-03T15:08:17;31.60;99.90
13561;DHT22;6852;51.686;5.314;2022-08-03T15:10:44;31.50;99.90
13561;DHT22;6852;51.686;5.314;2022-08-03T15:13:14;31.20;99.90
13561;DHT22;6852;51.686;5.314;2022-08-03T15:15:44;31.00;99.90
13561;DHT22;6852;51.686;5.314;2022-08-03T15:18:12;31.00;99.90
13561;DHT22;6852;51.686;5.314;2022-08-03T15:20:39;31.00;99.90
13561;DHT22;6852;51.686;5.314;2022-08-03T15:23:12;30.90;99.90
13561;DHT22;6852;51.686;5.314;2022-08-03T15:25:39;30.60;99.90
13561;DHT22;6852;51.686;5.314;2022-08-03T15:28:26;30.90;99.90
13561;DHT22;6852;51.686;5.314;2022-08-03T15:30:53;31.10;99.90
13561;DHT22;6852;51.686;5.314;2022-08-03T15:33:20;30.60;99.90
13561;DHT22;6852;51.686;5.314;2022-08-03T15:35:47;30.40;99.90
13561;DHT22;6852;51.686;5.314;2022-08-03T15:38:15;30.40;99.90
13561;DHT22;6852;51.686;5.314;2022-08-03T15:40:42;30.40;99.90
13561;DHT22;6852;51.686;5.314;2022-08-03T15:43:09;30.30;99.90
13561;DHT22;6852;51.686;5.314;2022-08-03T15:45:36;30.40;99.90
13561;DHT22;6852;51.686;5.314;2022-08-03T15:48:06;30.40;99.90
13561;DHT22;6852;51.686;5.314;2022-08-03T15:50:33;30.30;99.90
13561;DHT22;6852;51.686;5.314;2022-08-03T15:53:00;30.30;99.90
13561;DHT22;6852;51.686;5.314;2022-08-03T15:55:27;30.30;99.90
13561;DHT22;6852;51.686;5.314;2022-08-03T15:57:54;30.20;99.90
13561;DHT22;6852;51.686;5.314;2022-08-03T16:00:41;30.30;99.90
13561;DHT22;6852;51.686;5.314;2022-08-03T16:03:09;30.40;99.90
13561;DHT22;6852;51.686;5.314;2022-08-03T16:05:36;30.30;99.90
13561;DHT22;6852;51.686;5.314;2022-08-03T16:08:03;30.10;99.90
13561;DHT22;6852;51.686;5.314;2022-08-03T16:10:35;30.10;99.90
13561;DHT22;6852;51.686;5.314;2022-08-03T16:13:02;30.00;99.90
13561;DHT22;6852;51.686;5.314;2022-08-03T16:15:29;29.80;99.90
13561;DHT22;6852;51.686;5.314;2022-08-03T16:17:56;29.70;99.90
13561;DHT22;6852;51.686;5.314;2022-08-03T16:20:23;29.70;99.90
13561;DHT22;6852;51.686;5.314;2022-08-03T16:23:01;29.90;99.90
13561;DHT22;6852;51.686;5.314;2022-08-03T16:25:41;29.70;99.90
13561;DHT22;6852;51.686;5.314;2022-08-03T16:28:15;29.70;99.90
13561;DHT22;6852;51.686;5.314;2022-08-03T16:30:44;30.00;99.90
13561;DHT22;6852;51.686;5.314;2022-08-03T16:33:11;30.20;99.90
13561;DHT22;6852;51.686;5.314;2022-08-03T16:35:44;30.20;99.90
13561;DHT22;6852;51.686;5.314;2022-08-03T16:38:11;30.20;99.90
13561;DHT22;6852;51.686;5.314;2022-08-03T16:40:45;30.30;99.90
13561;DHT22;6852;51.686;5.314;2022-08-03T16:43:13;30.20;99.90
13561;DHT22;6852;51.686;5.314;2022-08-03T16:45:45;30.20;99.90
13561;DHT22;6852;51.686;5.314;2022-08-03T16:48:15;30.20;99.90
13561;DHT22;6852;51.686;5.314;2022-08-03T16:50:43;30.10;99.90